Latest Weather Observations for Hindmarsh Island

IDS60801

Issued at 3:11 pm CST Wednesday 20 June 2018 (issued every 10 minutes, with the page automatically refreshed every 10 minutes)

About weather observations | Map of weather stations | Latest weather observations for SA | Other Formats
Station Details ID: 023894 Name: HINDMARSH ISLAND AWS Lat: -35.52 Lon: 138.82 Height: 11.0 m
Data from the previous 72 hours. | See also: Recent months at Hindmarsh Island
Date/Time
CST
Temp
°C
App
Temp
°C
Dew
Point
°C
Rel
Hum
%
Delta-T
°C
Wind Press
QNH
hPa
Press
MSL
hPa
Rain since
9am
mm
Dir  Spd
km/h
Gust
km/h
Spd
kts
Gust
kts
20/03:00pm 15.7 12.5 5.0 49 5.0 NW 11 15 6 8 1024.5 1024.5 0.0
20/02:30pm 15.2 11.1 4.3 48 5.0 NW 15 20 8 11 1024.3 1024.3 0.0
20/02:00pm 15.5 11.4 4.6 48 5.1 NNW 15 22 8 12 1024.3 1024.3 0.0
20/01:30pm 15.5 11.9 5.1 50 4.9 NNW 13 17 7 9 1024.1 1024.1 0.0
20/01:00pm 15.2 11.5 4.6 49 4.9 NNW 13 20 7 11 1024.2 1024.2 0.0
20/12:30pm 14.4 9.6 4.7 52 4.5 NNW 19 26 10 14 1024.4 1024.4 0.0
20/12:00pm 13.9 9.3 3.9 51 4.5 NW 17 28 9 15 1024.7 1024.7 0.0
20/11:30am 13.0 8.5 4.2 55 4.0 N 17 24 9 13 1025.1 1025.1 0.0
20/11:00am 11.9 8.5 4.2 59 3.5 NNE 11 15 6 8 1025.5 1025.5 0.0
20/10:30am 11.5 7.5 4.9 64 3.0 NNE 15 19 8 10 1025.8 1025.8 0.0
20/10:00am 9.1 5.0 4.5 73 2.0 NNE 15 20 8 11 1025.9 1025.9 0.0
20/09:30am 8.4 4.7 4.2 75 1.8 NNE 13 15 7 8 1025.4 1025.4 0.0
20/09:00am 7.3 4.6 3.9 79 1.4 NNE 7 11 4 6 1025.3 1025.3 0.0
20/08:30am 6.4 2.4 2.9 78 1.4 N 13 15 7 8 1025.3 1025.3 0.0
20/08:00am 5.5 1.5 2.7 82 1.1 NE 13 15 7 8 1024.8 1024.8 0.0
20/07:30am 5.5 2.2 2.2 79 1.3 ENE 9 13 5 7 1024.5 1024.5 0.0
20/07:00am 7.0 2.8 3.6 79 1.4 NNE 15 19 8 10 1024.2 1024.2 0.0
20/06:30am 6.5 2.5 2.8 77 1.5 NNE 13 13 7 7 1024.0 1024.0 0.0
20/06:00am 6.3 3.1 2.9 79 1.4 NE 9 13 5 7 1024.0 1024.0 0.0
20/05:30am 6.6 2.6 2.9 77 1.5 NE 13 17 7 9 1023.8 1023.8 0.0
20/05:00am 7.3 3.8 3.7 78 1.5 NNE 11 15 6 8 1023.8 1023.8 0.0
20/04:30am 7.5 3.7 3.7 77 1.6 NNE 13 15 7 8 1023.9 1023.9 0.0
20/04:00am 6.6 3.4 3.2 79 1.4 NE 9 13 5 7 1023.6 1023.6 0.0
20/03:30am 7.2 3.8 3.8 79 1.4 NNE 11 13 6 7 1023.7 1023.7 0.0
20/03:00am 6.9 3.8 3.7 80 1.4 NE 9 13 5 7 1023.6 1023.6 0.0
20/02:30am 7.1 3.3 3.9 80 1.4 NE 13 15 7 8 1023.7 1023.7 0.0
20/02:00am 7.1 3.3 3.7 79 1.4 NE 13 15 7 8 1024.1 1024.1 0.0
20/01:30am 6.5 2.6 3.3 80 1.3 ENE 13 15 7 8 1023.9 1023.9 0.0
20/01:00am 6.5 2.6 3.3 80 1.3 ENE 13 17 7 9 1024.0 1024.0 0.0
20/12:30am 6.4 3.6 3.2 80 1.3 NE 7 11 4 6 1024.4 1024.4 0.0
20/12:00am 6.6 3.0 3.2 79 1.4 NE 11 13 6 7 1024.5 1024.5 0.0
 
Date/Time
CST
Temp
°C
App
Temp
°C
Dew
Point
°C
Rel
Hum
%
Delta-T
°C
Wind Press
QNH
hPa
Press
MSL
hPa
Rain since
9am
mm
Dir  Spd
km/h
Gust
km/h
Spd
kts
Gust
kts
19/11:30pm 7.7 4.7 3.9 77 1.6 N 9 11 5 6 1024.4 1024.4 0.0
19/11:00pm 7.8 4.4 4.0 77 1.6 NNE 11 13 6 7 1024.2 1024.2 0.0
19/10:30pm 8.0 4.3 4.2 77 1.6 NNE 13 15 7 8 1024.2 1024.2 0.0
19/10:00pm 7.8 3.7 4.2 78 1.6 NE 15 20 8 11 1024.3 1024.3 0.0
19/09:30pm 7.8 4.4 3.8 76 1.7 NE 11 13 6 7 1024.5 1024.5 0.0
19/09:00pm 8.6 4.9 4.6 76 1.8 N 13 15 7 8 1024.5 1024.5 0.0
19/08:30pm 9.1 4.1 4.7 74 1.9 N 20 26 11 14 1024.3 1024.3 0.0
19/08:00pm 9.6 4.8 4.4 70 2.3 N 19 26 10 14 1024.1 1024.1 0.0
19/07:30pm 10.0 5.2 4.6 69 2.4 N 19 24 10 13 1023.9 1023.9 0.0
19/07:00pm 10.3 5.2 4.2 66 2.7 NNE 20 26 11 14 1023.6 1023.6 0.0
19/06:30pm 10.7 5.9 4.6 66 2.7 N 19 26 10 14 1024.3 1024.3 0.0
19/06:00pm 10.7 5.7 4.6 66 2.7 N 20 24 11 13 1024.0 1024.0 0.0
19/05:30pm 10.8 6.4 4.5 65 2.8 N 17 20 9 11 1023.9 1023.9 0.0
19/05:00pm 11.2 6.2 4.4 63 3.1 N 20 26 11 14 1023.9 1023.9 0.0
19/04:30pm 11.3 7.6 4.5 63 3.0 NNW 13 20 7 11 1024.1 1024.1 0.0
19/04:00pm 11.6 7.5 4.3 61 3.3 N 15 20 8 11 1024.1 1024.1 0.0
19/03:30pm 12.0 6.9 4.0 58 3.6 NNW 20 26 11 14 1024.2 1024.2 0.0
19/03:00pm 12.7 8.1 3.9 55 3.9 NW 17 24 9 13 1024.0 1024.0 0.0
19/02:30pm 12.8 9.1 4.3 56 3.8 NNW 13 19 7 10 1024.2 1024.2 0.0
19/02:00pm 12.9 7.9 3.6 53 4.2 NNW 19 26 10 14 1024.1 1024.1 0.0
19/01:30pm 12.9 8.3 3.6 53 4.1 NNW 17 24 9 13 1024.2 1024.2 0.0
19/01:00pm 12.6 8.0 3.8 55 4.0 NNW 17 24 9 13 1024.6 1024.6 0.0
19/12:30pm 12.6 8.6 4.8 59 3.6 N 15 24 8 13 1025.2 1025.2 0.0
19/12:00pm 11.5 8.3 5.2 65 2.9 NNE 11 17 6 9 1025.9 1025.9 0.0
19/11:30am 11.0 7.0 5.1 67 2.7 NNE 15 19 8 10 1026.2 1026.2 0.0
19/11:00am 10.1 5.6 4.0 66 2.7 NNE 17 22 9 12 1026.5 1026.5 0.0
19/10:30am 10.1 5.3 4.5 68 2.5 NNE 19 24 10 13 1026.7 1026.7 0.0
19/10:00am 9.7 4.6 4.1 68 2.5 NNE 20 28 11 15 1027.0 1027.0 0.0
19/09:30am 9.2 4.3 4.2 71 2.2 NNE 19 24 10 13 1026.8 1026.8 0.0
19/09:00am 9.0 4.6 4.6 74 1.9 NNE 17 20 9 11 1027.1 1027.1 0.0
19/08:30am 8.4 4.7 4.6 77 1.7 NNE 13 17 7 9 1027.2 1027.2 0.0
19/08:00am 8.2 4.9 4.8 79 1.5 NNE 11 17 6 9 1027.5 1027.5 0.0
19/07:30am 8.1 4.4 4.7 79 1.5 NNE 13 15 7 8 1027.3 1027.3 0.0
19/07:00am 8.3 4.6 4.7 78 1.6 N 13 20 7 11 1027.4 1027.4 0.0
19/06:30am 8.3 4.6 4.7 78 1.6 NNE 13 19 7 10 1027.0 1027.0 0.0
19/06:00am 8.3 4.6 4.5 77 1.7 NNE 13 19 7 10 1027.1 1027.1 0.0
19/05:30am 8.4 5.1 4.4 76 1.7 NNE 11 17 6 9 1027.6 1027.6 0.0
19/05:00am 8.5 4.8 4.5 76 1.8 NNE 13 19 7 10 1027.3 1027.3 0.0
19/04:30am 8.5 5.2 4.5 76 1.7 NNE 11 15 6 8 1027.3 1027.3 0.0
19/04:00am 8.5 5.6 4.5 76 1.8 NE 9 13 5 7 1027.9 1027.9 0.0
19/03:30am 8.5 5.5 4.3 75 1.8 NE 9 11 5 6 1027.9 1027.9 0.0
19/03:00am 8.7 5.0 4.3 74 1.9 NE 13 17 7 9 1027.6 1027.6 0.0
19/02:30am 9.0 5.8 5.0 76 1.8 NNE 11 17 6 9 1027.7 1027.7 0.0
19/02:00am 8.6 5.4 5.2 79 1.5 NE 11 15 6 8 1028.1 1028.1 0.0
19/01:30am 8.6 5.9 5.4 80 1.4 ENE 9 11 5 6 1028.1 1028.1 0.0
19/01:00am 8.5 5.8 5.4 81 1.4 NE 9 13 5 7 1028.4 1028.4 0.0
19/12:30am 8.6 5.1 5.5 81 1.4 ENE 13 17 7 9 1027.9 1027.9 0.0
19/12:00am 8.6 5.2 5.7 82 1.3 NE 13 17 7 9 1027.9 1027.9 0.0
 
Date/Time
CST
Temp
°C
App
Temp
°C
Dew
Point
°C
Rel
Hum
%
Delta-T
°C
Wind Press
QNH
hPa
Press
MSL
hPa
Rain since
9am
mm
Dir  Spd
km/h
Gust
km/h
Spd
kts
Gust
kts
18/11:30pm 8.7 6.0 5.6 81 1.4 NNE 9 9 5 5 1029.1 1029.1 0.0
18/11:00pm 8.5 5.4 5.6 82 1.3 NE 11 15 6 8 1029.4 1029.4 0.0
18/10:30pm 8.2 5.0 5.3 82 1.3 NE 11 13 6 7 1029.4 1029.4 0.0
18/10:00pm 8.1 5.3 5.2 82 1.3 N 9 11 5 6 1029.3 1029.3 0.0
18/09:30pm 7.5 3.9 4.8 83 1.2 ENE 13 17 7 9 1028.9 1028.9 0.0
18/09:00pm 7.0 2.9 4.1 82 1.2 ENE 15 17 8 9 1028.4 1028.4 0.0
18/08:30pm 6.8 2.2 3.9 82 1.2 ENE 17 19 9 10 1028.3 1028.3 0.0
18/08:00pm 7.6 3.9 4.2 79 1.5 ENE 13 15 7 8 1029.0 1029.0 0.0
18/07:30pm 8.9 5.7 5.1 77 1.7 NE 11 11 6 6 1029.0 1029.0 0.0
18/07:00pm 9.3 6.6 5.7 78 1.6 NE 9 11 5 6 1028.9 1028.9 0.0
18/06:30pm 9.8 8.5 5.8 76 1.8 NE 2 9 1 5 1028.9 1028.9 0.0
18/06:00pm 10.5 9.7 6.6 77 1.8 CALM 0 0 0 0 1028.9 1028.9 0.0
18/05:30pm 10.7 9.5 6.5 75 2.0 SE 2 6 1 3 1029.0 1029.0 0.0
18/05:00pm 11.0 10.2 6.6 74 2.1 CALM 0 0 0 0 1029.1 1029.1 0.0
18/04:30pm 11.3 9.2 6.8 74 2.1 ENE 7 9 4 5 1029.0 1029.0 0.0
18/04:00pm 11.6 9.6 7.1 74 2.2 NE 7 9 4 5 1029.1 1029.1 0.0
18/03:30pm 11.6 8.5 7.1 74 2.1 ENE 13 15 7 8 1028.9 1028.9 0.0
18/03:00pm 12.1 8.6 7.4 73 2.3 E 15 20 8 11 1029.0 1029.0 0.0
18/02:30pm 12.1 10.0 6.8 70 2.5 SE 7 9 4 5 1029.2 1029.2 0.0
18/02:00pm 13.1 11.6 6.7 65 3.1 W 4 9 2 5 1029.3 1029.3 0.0
18/01:30pm 12.2 9.9 7.3 72 2.3 NNE 9 13 5 7 1029.4 1029.4 0.0
18/01:00pm 12.0 9.3 7.3 73 2.3 NNE 11 15 6 8 1029.8 1029.8 0.0
18/12:30pm 11.7 9.0 7.2 74 2.1 NNE 11 15 6 8 1030.1 1030.1 0.0
18/12:00pm 11.2 7.9 8.1 81 1.5 NNE 15 20 8 11 1030.6 1030.6 0.0
18/11:30am 11.8 9.0 8.5 80 1.6 NNE 13 17 7 9 1031.0 1031.0 0.0
18/11:00am 11.1 8.6 8.3 83 1.4 N 11 13 6 7 1031.2 1031.2 0.0
18/10:30am 10.5 10.1 8.1 85 1.2 CALM 0 0 0 0 1031.5 1031.5 0.0
18/10:00am 10.3 7.8 8.2 87 1.0 NNW 11 15 6 8 1031.3 1031.3 0.0
18/09:30am 9.9 7.4 8.0 88 0.9 N 11 17 6 9 1031.0 1031.0 0.0
18/09:00am 9.5 6.9 7.8 89 0.8 N 11 15 6 8 1030.8 1030.8 1.4
18/08:30am 8.9 6.9 7.0 88 0.9 N 7 9 4 5 1030.7 1030.7 1.2
18/08:00am 9.0 6.6 7.0 87 0.9 NNE 9 11 5 6 1030.3 1030.3 1.2
18/07:30am 9.1 7.1 7.1 87 0.9 E 7 13 4 7 1029.9 1029.9 1.2
18/07:00am 8.8 5.9 6.6 86 1.0 NNE 11 13 6 7 1029.4 1029.4 0.6
18/06:30am 9.4 6.6 6.8 84 1.2 E 11 17 6 9 1029.4 1029.4 0.6
18/06:00am 10.1 5.6 7.0 81 1.5 S 20 28 11 15 1029.2 1029.2 0.6
18/05:30am 10.1 5.6 7.0 81 1.5 SSW 20 30 11 16 1029.2 1029.2 0.6
18/05:00am 10.1 5.1 6.6 79 1.6 S 22 28 12 15 1029.1 1029.1 0.6
18/04:30am 10.1 5.8 6.8 80 1.5 S 19 22 10 12 1029.2 1029.2 0.6
18/04:00am 9.7 5.4 7.0 83 1.3 SSE 19 26 10 14 1029.3 1029.3 0.6
18/03:30am 10.3 4.4 5.9 74 2.0 S 26 32 14 17 1029.1 1029.1 0.6
18/03:00am 10.5 6.6 7.0 79 1.6 SSE 17 20 9 11 1029.2 1029.2 0.6
18/02:40am 10.6 5.2 6.2 74 2.0 SE 24 43 13 23 1028.8 1028.8 0.4
18/02:30am 10.3 7.1 6.8 79 1.6 SSE 13 19 7 10 1029.2 1029.2 0.4
18/02:00am 11.6 5.9 6.7 72 2.3 S 26 41 14 22 1028.9 1028.9 0.4
18/01:30am 10.4 5.8 6.5 77 1.8 SE 20 28 11 15 1029.0 1029.0 0.4
18/01:00am 11.3 4.8 6.6 73 2.2 SSE 30 37 16 20 1028.9 1028.9 0.2
18/12:30am 11.9 5.6 3.9 58 3.5 S 26 32 14 17 1028.9 1028.9 0.2
18/12:00am 11.6 4.0 2.6 54 3.9 S 32 39 17 21 1028.9 1028.9 0.2
 
Date/Time
CST
Temp
°C
App
Temp
°C
Dew
Point
°C
Rel
Hum
%
Delta-T
°C
Wind Press
QNH
hPa
Press
MSL
hPa
Rain since
9am
mm
Dir  Spd
km/h
Gust
km/h
Spd
kts
Gust
kts
17/11:30pm 12.2 5.3 4.4 59 3.5 SSE 30 35 16 19 1029.1 1029.1 0.2
17/11:00pm 12.2 4.9 4.7 60 3.4 S 32 39 17 21 1029.2 1029.2 0.2
17/10:30pm 11.8 3.9 4.5 61 3.3 SSE 35 43 19 23 1029.1 1029.1 0.2
17/10:00pm 12.2 4.6 3.9 57 3.7 S 33 41 18 22 1029.1 1029.1 0.2
17/09:30pm 12.0 5.0 4.2 59 3.5 S 30 39 16 21 1029.0 1029.0 0.2
17/09:00pm 11.7 3.8 4.4 61 3.3 SSW 35 41 19 22 1028.9 1028.9 0.2
17/08:30pm 12.1 3.4 2.3 51 4.2 SSW 37 46 20 25 1028.7 1028.7 0.2
17/08:00pm 12.1 3.4 4.3 59 3.5 S 39 50 21 27 1028.5 1028.5 0.2
17/07:30pm 12.0 4.4 4.0 58 3.6 SSW 33 48 18 26 1028.4 1028.4 0.2
17/07:00pm 12.2 3.5 4.2 58 3.6 SSW 39 48 21 26 1028.3 1028.3 0.2
17/06:30pm 11.9 3.9 3.9 58 3.6 S 35 44 19 24 1028.1 1028.1 0.2
17/06:00pm 12.1 5.0 5.3 63 3.1 S 32 37 17 20 1027.9 1027.9 0.2
17/05:30pm 11.9 5.1 5.1 63 3.1 S 30 35 16 19 1027.6 1027.6 0.2
17/05:18pm 11.8 4.1 5.2 64 3.0 S 35 39 19 21 1027.5 1027.5 0.2
17/05:00pm 12.1 3.2 3.3 55 3.9 SSW 39 48 21 26 1027.3 1027.3 0.2
17/04:30pm 12.2 4.4 4.9 61 3.3 SSW 35 41 19 22 1027.1 1027.1 0.2
17/04:00pm 12.6 3.8 3.8 55 4.0 SSW 39 46 21 25 1026.9 1026.9 0.2
17/03:30pm 12.6 4.7 4.1 56 3.8 SSW 35 43 19 23 1026.7 1026.7 0.2

Other Formats:

Comma delimited format used in spreadsheet applications
http://www.bom.gov.au/fwo/IDS60801/IDS60801.94677.axf

JavaScript Object Notation format (JSON) in row-major order
http://www.bom.gov.au/fwo/IDS60801/IDS60801.94677.json